aviador You're here:

KBFD Decoded Metar

BRADFORD in PA, USA
Report Time2018-07-22 15:53:00
UTC Time2018-07-22 16:38:53
Flight Rules ifr IFR
Wind160° at 06 kt
W.Decomp.*RWY 14: 5.1 kt HW 3.1 kt RCW
RWY 23: 3.1 kt HW 5.1 kt LCW
W.Rank160° ranks 12
Current wind is below 160° avg. (6.7)
Visibility9999 m
Phenomena:N/A
Clouds:Overcast 009 Hf
Expected CloudBase > 400 ft AGL from Temp-Dew spread
Ceiling900 ft
Temp17°C (ISA +6)
Dew Point16°C (94% RH)
AAT16.8°C
QNH1010 hPa
Density Alt3,205 ft
Elevation2,123 ft
Report Wrong Elevation
Raw Report
KBFD 221553Z AUTO 16006KT 10SM OVC009 17/16 A2982 RMK AO2 SLP090
T01720156=

Extra information for KBFD:More info

Metar Taf Metar & Taf Last 4 Metars F.Rules Stats Wind Profile Meteogram Temp Stats Airport Information Weather charts Add Link Nearby VenuesMetar ALERT Operation Metar Decoded Social comments

AIRNAV info for KBFD